Time;durP1;ratioP1;P1;durP2;ratioP2;P2;SDS_P1;SDS_P2;PMS_P1;PMS_P2;Temp;Humidity;BMP_temperature;BMP_pressure;BME280_temperature;BME280_humidity;BME280_pressure;Samples;Min_cycle;Max_cycle;Signal;HPM_P1;HPM_P2
2020/12/20 00:00:38;;;;;;;5.40;4.63;;;10.70;99.90;;;;;;5071700;28;20961;-74
2020/12/20 00:03:04;;;;;;;4.70;4.30;;;10.70;99.90;;;;;;5069947;28;20222;-74
2020/12/20 00:05:30;;;;;;;4.20;3.80;;;10.70;99.90;;;;;;5054137;28;20175;-74
2020/12/20 00:07:57;;;;;;;4.70;4.10;;;10.70;99.90;;;;;;5068439;28;20479;-74
2020/12/20 00:10:24;;;;;;;4.93;4.53;;;10.70;99.90;;;;;;5052908;28;20529;-74
2020/12/20 00:12:49;;;;;;;4.13;3.80;;;10.70;99.90;;;;;;5070203;28;20484;-74
2020/12/20 00:15:16;;;;;;;4.63;4.23;;;10.70;99.90;;;;;;5070059;28;20472;-74
2020/12/20 00:17:49;;;;;;;5.43;4.90;;;10.70;99.90;;;;;;5069797;28;20266;-74
2020/12/20 00:20:15;;;;;;;5.30;4.80;;;10.70;99.90;;;;;;5077678;28;20465;-74
2020/12/20 00:22:41;;;;;;;5.30;4.17;;;10.70;99.90;;;;;;5053764;28;20961;-74
2020/12/20 00:25:07;;;;;;;5.23;4.50;;;10.70;99.90;;;;;;5075531;28;20515;-74
2020/12/20 00:27:33;;;;;;;5.70;4.40;;;10.70;99.90;;;;;;5076037;28;20179;-74
2020/12/20 00:29:58;;;;;;;8.43;4.60;;;10.70;99.90;;;;;;5052537;28;20441;-74
2020/12/20 00:32:24;;;;;;;5.00;4.20;;;10.70;99.90;;;;;;5062771;28;20237;-74
2020/12/20 00:34:49;;;;;;;4.77;4.07;;;10.70;99.90;;;;;;5068629;28;20294;-74
2020/12/20 00:37:15;;;;;;;5.90;4.27;;;10.60;99.90;;;;;;5070472;28;20188;-74
2020/12/20 00:39:41;;;;;;;4.73;4.10;;;10.60;99.90;;;;;;5071537;28;20195;-74
2020/12/20 00:42:07;;;;;;;5.43;4.10;;;10.60;99.90;;;;;;5052048;28;20211;-74
2020/12/20 00:44:34;;;;;;;4.90;4.03;;;10.50;99.90;;;;;;5074522;28;20469;-74
2020/12/20 00:47:04;;;;;;;4.77;4.37;;;10.50;99.90;;;;;;5069347;28;20273;-74
2020/12/20 00:49:31;;;;;;;5.77;4.50;;;10.50;99.90;;;;;;5077691;28;20527;-74
2020/12/20 00:51:59;;;;;;;4.87;4.37;;;10.50;99.90;;;;;;5069275;28;20473;-74
2020/12/20 00:54:26;;;;;;;5.60;4.80;;;10.50;99.90;;;;;;5076471;28;20799;-74
2020/12/20 00:56:51;;;;;;;5.40;4.60;;;10.40;99.90;;;;;;5069514;28;20449;-74
2020/12/20 00:59:17;;;;;;;5.80;4.90;;;10.50;99.90;;;;;;5075076;28;20440;-74
2020/12/20 01:01:42;;;;;;;6.10;4.70;;;10.40;99.90;;;;;;5056098;28;20575;-74
2020/12/20 01:04:08;;;;;;;5.70;5.10;;;10.40;99.90;;;;;;5072324;28;20624;-74
2020/12/20 01:06:34;;;;;;;8.00;4.50;;;10.40;99.90;;;;;;5075891;28;20207;-74
2020/12/20 01:09:00;;;;;;;7.90;5.20;;;10.40;99.90;;;;;;5075250;28;20468;-74
2020/12/20 01:11:25;;;;;;;6.37;4.30;;;10.40;99.90;;;;;;5073206;28;20241;-74
2020/12/20 01:13:51;;;;;;;6.50;4.90;;;10.40;99.90;;;;;;5055181;28;20208;-74
2020/12/20 01:16:18;;;;;;;5.60;5.10;;;10.40;99.90;;;;;;5073623;28;20187;-74
2020/12/20 01:18:44;;;;;;;4.90;4.43;;;10.40;99.90;;;;;;5080400;28;20706;-74
2020/12/20 01:21:09;;;;;;;7.90;5.40;;;10.40;99.90;;;;;;5078406;28;20434;-74
2020/12/20 01:23:35;;;;;;;5.80;5.23;;;10.50;99.90;;;;;;5072898;28;20198;-74
2020/12/20 01:26:01;;;;;;;7.00;5.07;;;10.40;99.90;;;;;;5074950;28;20540;-74
2020/12/20 01:28:30;;;;;;;6.03;4.90;;;10.40;99.90;;;;;;5076252;28;20188;-74
2020/12/20 01:30:56;;;;;;;4.87;4.37;;;10.30;99.90;;;;;;5074444;28;20200;-74
2020/12/20 01:33:22;;;;;;;5.47;4.93;;;10.30;99.90;;;;;;5073224;28;20442;-74
2020/12/20 01:35:47;;;;;;;6.40;5.00;;;10.30;99.90;;;;;;5073534;28;20272;-74
2020/12/20 01:38:13;;;;;;;4.37;3.97;;;10.30;99.90;;;;;;5071906;28;20920;-74
2020/12/20 01:40:39;;;;;;;5.07;4.57;;;10.30;99.90;;;;;;5073493;28;20184;-74
2020/12/20 01:43:05;;;;;;;6.33;5.60;;;10.30;99.90;;;;;;5054324;28;20433;-74
2020/12/20 01:45:30;;;;;;;7.30;5.57;;;10.30;99.90;;;;;;5072783;28;20275;-74
2020/12/20 01:47:56;;;;;;;6.90;5.10;;;10.30;99.90;;;;;;5054531;28;20179;-74
2020/12/20 01:50:22;;;;;;;5.70;5.20;;;10.30;99.90;;;;;;5077648;28;20188;-74
2020/12/20 01:52:48;;;;;;;6.33;5.80;;;10.20;99.90;;;;;;5073380;28;20341;-74
2020/12/20 01:55:17;;;;;;;6.50;5.20;;;10.20;99.90;;;;;;5075076;28;20831;-74
2020/12/20 01:57:42;;;;;;;6.40;5.20;;;10.20;99.90;;;;;;5077407;28;20242;-74
2020/12/20 02:00:08;;;;;;;6.23;5.60;;;10.20;99.90;;;;;;5072756;28;20752;-74
2020/12/20 02:02:33;;;;;;;6.07;5.47;;;10.10;99.90;;;;;;5072367;28;20274;-74
2020/12/20 02:04:59;;;;;;;5.97;5.10;;;10.10;99.90;;;;;;5075338;28;20176;-74
2020/12/20 02:07:25;;;;;;;6.90;6.03;;;10.10;99.90;;;;;;5073076;28;20533;-74
2020/12/20 02:09:50;;;;;;;5.60;5.10;;;10.10;99.90;;;;;;5071016;28;20587;-74
2020/12/20 02:12:16;;;;;;;6.13;5.57;;;10.10;99.90;;;;;;5070322;28;20206;-74
2020/12/20 02:14:41;;;;;;;6.90;6.20;;;10.10;99.90;;;;;;5057675;28;20658;-74
2020/12/20 02:17:07;;;;;;;6.20;5.60;;;10.10;99.90;;;;;;5076446;28;20211;-74
2020/12/20 02:19:33;;;;;;;6.53;5.90;;;10.10;99.90;;;;;;5079357;28;20294;-74
2020/12/20 02:22:00;;;;;;;11.63;6.07;;;10.10;99.90;;;;;;5072551;28;20429;-74
2020/12/20 02:24:25;;;;;;;6.83;6.13;;;10.10;99.90;;;;;;5072583;28;20433;-74
2020/12/20 02:26:51;;;;;;;6.63;5.63;;;10.10;99.90;;;;;;5058055;28;20444;-74
2020/12/20 02:29:17;;;;;;;8.70;5.07;;;10.10;99.90;;;;;;5070355;28;20179;-74
2020/12/20 02:31:42;;;;;;;5.83;5.30;;;10.10;99.90;;;;;;5057322;28;20448;-74
2020/12/20 02:34:09;;;;;;;7.03;6.27;;;10.10;99.90;;;;;;5071925;28;20244;-74
2020/12/20 02:36:36;;;;;;;6.00;5.30;;;10.10;99.90;;;;;;5073234;28;20275;-74
2020/12/20 02:39:01;;;;;;;6.47;5.67;;;10.10;99.90;;;;;;5071492;28;20878;-74
2020/12/20 02:41:27;;;;;;;6.90;6.20;;;10.10;99.90;;;;;;5071754;28;20426;-74
2020/12/20 02:43:53;;;;;;;7.10;6.43;;;10.10;99.90;;;;;;5070395;28;20520;-74
2020/12/20 02:46:18;;;;;;;6.60;5.93;;;10.10;99.90;;;;;;5072741;28;20179;-74
2020/12/20 02:48:45;;;;;;;6.23;5.63;;;10.00;99.90;;;;;;5071698;28;20184;-74
2020/12/20 02:51:11;;;;;;;5.83;5.33;;;10.00;99.90;;;;;;5057421;28;20279;-74
2020/12/20 02:53:37;;;;;;;7.87;5.80;;;10.00;99.90;;;;;;5074220;28;21016;-74
2020/12/20 02:56:02;;;;;;;6.40;5.70;;;10.00;99.90;;;;;;5071242;28;20196;-74
2020/12/20 02:58:28;;;;;;;7.03;6.17;;;9.90;99.90;;;;;;5078441;28;20553;-74
2020/12/20 03:00:53;;;;;;;6.27;5.63;;;9.90;99.90;;;;;;5057669;28;20210;-74
2020/12/20 03:03:19;;;;;;;6.87;5.57;;;9.90;99.90;;;;;;5073647;28;20195;-74
2020/12/20 03:05:44;;;;;;;7.40;6.67;;;9.90;99.90;;;;;;5069640;28;20187;-74
2020/12/20 03:08:10;;;;;;;7.17;6.37;;;9.90;99.90;;;;;;5073947;28;20195;-74
2020/12/20 03:10:35;;;;;;;8.47;6.57;;;9.90;99.90;;;;;;5052106;28;20195;-74
2020/12/20 03:13:01;;;;;;;7.73;5.90;;;9.90;99.90;;;;;;5071661;28;20194;-74
2020/12/20 03:15:27;;;;;;;7.03;6.30;;;9.90;99.90;;;;;;5071018;28;20212;-74
2020/12/20 03:17:52;;;;;;;6.73;6.03;;;9.80;99.90;;;;;;5071364;28;20477;-74
2020/12/20 03:20:18;;;;;;;7.90;7.10;;;9.90;99.90;;;;;;5075253;28;20217;-74
2020/12/20 03:22:43;;;;;;;6.90;6.07;;;9.90;99.90;;;;;;5070079;28;20206;-74
2020/12/20 03:25:09;;;;;;;6.13;5.60;;;9.80;99.90;;;;;;5059441;28;20638;-74
2020/12/20 03:27:35;;;;;;;6.80;6.17;;;9.90;99.90;;;;;;5070425;28;20517;-74
2020/12/20 03:30:00;;;;;;;5.77;5.20;;;9.80;99.90;;;;;;5070896;28;20178;-74
2020/12/20 03:32:26;;;;;;;7.10;6.40;;;9.90;99.90;;;;;;5073963;28;20229;-74
2020/12/20 03:34:52;;;;;;;8.53;6.13;;;9.90;99.90;;;;;;5074498;28;20564;-73
2020/12/20 03:37:17;;;;;;;6.67;6.07;;;9.90;99.90;;;;;;5056180;28;20188;-73
2020/12/20 03:39:43;;;;;;;7.43;6.73;;;9.90;99.90;;;;;;5054791;28;20200;-73
2020/12/20 03:42:09;;;;;;;7.30;6.60;;;9.90;99.90;;;;;;5055593;28;20188;-73
2020/12/20 03:44:34;;;;;;;6.40;5.80;;;9.90;99.90;;;;;;5051479;28;20680;-73
2020/12/20 03:47:00;;;;;;;8.20;6.47;;;9.90;99.90;;;;;;5073194;28;20254;-73
2020/12/20 03:49:25;;;;;;;7.40;6.00;;;9.90;99.90;;;;;;5081362;28;20179;-73
2020/12/20 03:51:51;;;;;;;7.33;5.87;;;9.90;99.90;;;;;;5056500;28;20191;-74
2020/12/20 03:54:16;;;;;;;9.80;6.13;;;9.80;99.90;;;;;;5055625;28;20202;-74
2020/12/20 03:56:42;;;;;;;6.80;6.20;;;9.80;99.90;;;;;;5070434;28;20198;-74
2020/12/20 03:59:07;;;;;;;6.60;5.70;;;9.80;99.90;;;;;;5054997;28;20274;-74
2020/12/20 04:01:33;;;;;;;9.07;5.90;;;9.70;99.90;;;;;;5070439;28;20191;-74
2020/12/20 04:03:58;;;;;;;6.50;5.90;;;9.80;99.90;;;;;;5071055;28;20215;-74
2020/12/20 04:06:24;;;;;;;6.70;6.10;;;9.70;99.90;;;;;;5071402;28;20203;-74
2020/12/20 04:08:49;;;;;;;8.60;6.80;;;9.70;99.90;;;;;;5073280;28;20194;-74
2020/12/20 04:11:15;;;;;;;6.40;5.80;;;9.70;99.90;;;;;;5068831;28;20194;-74
2020/12/20 04:13:40;;;;;;;7.80;6.27;;;9.70;99.90;;;;;;5070301;28;20293;-74
2020/12/20 04:16:07;;;;;;;6.47;5.33;;;9.70;99.90;;;;;;5070165;28;20823;-74
2020/12/20 04:18:34;;;;;;;8.10;6.10;;;9.70;99.90;;;;;;5076004;28;20172;-74
2020/12/20 04:21:00;;;;;;;7.67;6.33;;;9.70;99.90;;;;;;5052655;28;20828;-74
2020/12/20 04:23:25;;;;;;;7.17;6.20;;;9.70;99.90;;;;;;5071303;28;20502;-74
2020/12/20 04:25:51;;;;;;;6.77;5.80;;;9.70;99.90;;;;;;5062311;28;21098;-74
2020/12/20 04:28:17;;;;;;;6.93;6.23;;;9.70;99.90;;;;;;5077713;28;20175;-74
2020/12/20 04:30:43;;;;;;;10.53;6.20;;;9.70;99.90;;;;;;5069956;28;20260;-74
2020/12/20 04:33:08;;;;;;;7.90;6.40;;;9.70;99.90;;;;;;5069363;28;20459;-74
2020/12/20 04:35:34;;;;;;;7.70;6.87;;;9.60;99.90;;;;;;5075356;28;20294;-74
2020/12/20 04:38:00;;;;;;;6.30;5.80;;;9.60;99.90;;;;;;5073636;28;20188;-74
2020/12/20 04:40:26;;;;;;;7.23;6.07;;;9.60;99.90;;;;;;5058333;28;20194;-75
2020/12/20 04:43:21;;;;;;;6.27;5.70;;;9.50;99.90;;;;;;5074222;28;20442;-74
2020/12/20 04:45:47;;;;;;;7.40;6.70;;;9.50;99.90;;;;;;5078133;28;20485;-74
2020/12/20 04:48:14;;;;;;;6.80;6.17;;;9.50;99.90;;;;;;5073621;28;20455;-74
2020/12/20 04:50:43;;;;;;;8.07;6.70;;;9.50;99.90;;;;;;5073817;28;20437;-74
2020/12/20 04:53:09;;;;;;;7.50;6.80;;;9.50;99.90;;;;;;5054853;28;20882;-74
2020/12/20 04:55:36;;;;;;;7.10;6.40;;;9.50;99.90;;;;;;5063711;28;20535;-74
2020/12/20 04:58:02;;;;;;;9.90;7.90;;;9.50;99.90;;;;;;5075251;28;20456;-74
2020/12/20 05:00:27;;;;;;;8.33;7.40;;;9.50;99.90;;;;;;5073792;28;20533;-74
2020/12/20 05:02:53;;;;;;;9.60;6.57;;;9.50;99.90;;;;;;5078149;28;20210;-74
2020/12/20 05:05:19;;;;;;;7.63;6.57;;;9.50;99.90;;;;;;5072531;28;20644;-74
2020/12/20 05:07:45;;;;;;;9.10;7.80;;;9.50;99.90;;;;;;5081617;28;20187;-74
2020/12/20 05:10:10;;;;;;;10.00;6.37;;;9.50;99.90;;;;;;5072858;28;20456;-74
2020/12/20 05:12:37;;;;;;;6.93;6.17;;;9.50;99.90;;;;;;5073199;28;20176;-74
2020/12/20 05:15:20;;;;;;;8.90;7.10;;;9.50;99.90;;;;;;5072097;28;20231;-74
2020/12/20 05:17:45;;;;;;;12.30;6.83;;;9.50;99.90;;;;;;5075593;28;22435;-74
2020/12/20 05:20:14;;;;;;;7.20;6.50;;;9.50;99.90;;;;;;5077804;28;20953;-74
2020/12/20 05:22:40;;;;;;;8.07;7.27;;;9.60;99.90;;;;;;5074332;28;20188;-74
2020/12/20 05:25:16;;;;;;;7.90;7.20;;;9.60;99.90;;;;;;5076581;28;20438;-74
2020/12/20 05:27:42;;;;;;;8.20;7.40;;;9.60;99.90;;;;;;5079405;28;20440;-74
2020/12/20 05:30:15;;;;;;;9.30;7.10;;;9.60;99.90;;;;;;5076632;28;20438;-74
2020/12/20 05:32:44;;;;;;;10.03;7.47;;;9.60;99.90;;;;;;5056536;28;20183;-74
2020/12/20 05:35:11;;;;;;;8.70;7.70;;;9.60;99.90;;;;;;5071193;28;20765;-74
2020/12/20 05:37:38;;;;;;;7.30;6.70;;;9.60;99.90;;;;;;5072347;28;20457;-74
2020/12/20 05:40:09;;;;;;;7.70;6.90;;;9.60;99.90;;;;;;5073789;28;20440;-74
2020/12/20 05:42:35;;;;;;;9.03;8.10;;;9.60;99.90;;;;;;5072080;28;20445;-74
2020/12/20 05:45:03;;;;;;;6.60;6.10;;;9.60;99.90;;;;;;5071862;28;20498;-74
2020/12/20 05:47:29;;;;;;;8.00;7.20;;;9.60;99.90;;;;;;5076464;28;20438;-74
2020/12/20 05:49:54;;;;;;;11.67;8.17;;;9.60;99.90;;;;;;5071680;28;20448;-74
2020/12/20 05:52:20;;;;;;;6.97;6.37;;;9.60;99.90;;;;;;5061246;28;20192;-74
2020/12/20 05:54:45;;;;;;;9.30;8.40;;;9.50;99.90;;;;;;5055303;28;20655;-74
2020/12/20 05:57:19;;;;;;;8.27;7.47;;;9.50;99.90;;;;;;5074688;28;20200;-74
2020/12/20 05:59:46;;;;;;;8.50;7.63;;;9.50;99.90;;;;;;5056163;28;20195;-74
2020/12/20 06:02:13;;;;;;;10.03;8.87;;;9.50;99.90;;;;;;5074957;28;20438;-75
2020/12/20 06:04:40;;;;;;;7.90;7.13;;;9.50;99.90;;;;;;5073976;28;20830;-74
2020/12/20 06:07:07;;;;;;;8.47;7.67;;;9.50;99.90;;;;;;5072660;28;20511;-74
2020/12/20 06:09:50;;;;;;;8.87;7.97;;;9.50;99.90;;;;;;5072529;28;20472;-74
2020/12/20 06:12:20;;;;;;;9.60;8.73;;;9.50;99.90;;;;;;5072332;28;20442;-74
2020/12/20 06:14:47;;;;;;;8.20;7.40;;;9.50;99.90;;;;;;5073019;28;20524;-74
2020/12/20 06:17:18;;;;;;;8.67;7.87;;;9.50;99.90;;;;;;5055474;28;20445;-74
2020/12/20 06:20:02;;;;;;;9.50;8.50;;;9.50;99.90;;;;;;5080371;28;20465;-74
2020/12/20 06:22:32;;;;;;;10.07;9.07;;;9.50;99.90;;;;;;5072396;28;20517;-74
2020/12/20 06:25:06;;;;;;;8.90;8.00;;;9.50;99.90;;;;;;5074002;28;20499;-74
2020/12/20 06:27:33;;;;;;;9.43;8.63;;;9.50;99.90;;;;;;5072409;28;20536;-74
2020/12/20 06:30:02;;;;;;;8.93;8.13;;;9.50;99.90;;;;;;5056683;28;20668;-74
2020/12/20 06:32:50;;;;;;;9.77;8.97;;;9.50;99.90;;;;;;5072583;28;20449;-74
2020/12/20 06:35:19;;;;;;;9.87;8.87;;;9.50;99.90;;;;;;5073205;28;20488;-74
2020/12/20 06:37:46;;;;;;;9.73;8.90;;;9.50;99.90;;;;;;5058493;28;20480;-74
2020/12/20 06:40:13;;;;;;;10.77;8.70;;;9.50;99.90;;;;;;5073256;28;20605;-74
2020/12/20 06:42:41;;;;;;;9.80;8.80;;;9.50;99.90;;;;;;5070778;28;20946;-74
2020/12/20 06:45:16;;;;;;;9.67;8.67;;;9.50;99.90;;;;;;5066332;28;20437;-74
2020/12/20 06:47:46;;;;;;;9.63;8.73;;;9.50;99.90;;;;;;5070872;28;20791;-74
2020/12/20 06:50:12;;;;;;;12.20;9.47;;;9.50;99.90;;;;;;5063763;28;20446;-74
2020/12/20 06:52:48;;;;;;;10.03;9.07;;;9.50;99.90;;;;;;5072387;28;20429;-74
2020/12/20 06:55:16;;;;;;;13.03;10.47;;;9.50;99.90;;;;;;5079942;28;20488;-74
2020/12/20 06:58:04;;;;;;;10.53;9.50;;;9.50;99.90;;;;;;5073229;28;20490;-74
2020/12/20 07:00:46;;;;;;;9.80;8.90;;;9.50;99.90;;;;;;5072516;28;20429;-74
2020/12/20 07:03:41;;;;;;;12.00;9.63;;;9.50;99.90;;;;;;5070101;28;20441;-74
2020/12/20 07:06:14;;;;;;;9.23;8.33;;;9.50;99.90;;;;;;5038899;28;20576;-74
2020/12/20 07:08:40;;;;;;;11.20;9.70;;;9.50;99.90;;;;;;5053286;28;20452;-74
2020/12/20 07:11:18;;;;;;;10.03;9.07;;;9.50;99.90;;;;;;5075635;28;20941;-74
2020/12/20 07:13:45;;;;;;;13.10;9.50;;;9.60;99.90;;;;;;5070445;28;20510;-74
2020/12/20 07:16:13;;;;;;;10.23;9.13;;;9.50;99.90;;;;;;5070216;28;20834;-74
2020/12/20 07:18:58;;;;;;;10.30;9.30;;;9.50;99.90;;;;;;5077520;28;20428;-74
2020/12/20 07:21:26;;;;;;;9.67;8.77;;;9.50;99.90;;;;;;5070849;28;20530;-74
2020/12/20 07:23:59;;;;;;;10.10;8.97;;;9.50;99.90;;;;;;5053724;28;21053;-74
2020/12/20 07:26:25;;;;;;;10.80;9.70;;;9.40;99.90;;;;;;5073304;28;20448;-74
2020/12/20 07:28:51;;;;;;;9.50;8.60;;;9.40;99.90;;;;;;5075525;28;20441;-74
2020/12/20 07:31:19;;;;;;;10.20;9.20;;;9.40;99.90;;;;;;5070275;28;20440;-74
2020/12/20 07:33:45;;;;;;;10.37;9.40;;;9.40;99.90;;;;;;5051852;28;20219;-74
2020/12/20 07:36:12;;;;;;;12.27;9.83;;;9.40;99.90;;;;;;5071164;28;21022;-74
2020/12/20 07:38:38;;;;;;;10.23;9.33;;;9.40;99.90;;;;;;5070193;28;20476;-74
2020/12/20 07:41:11;;;;;;;11.77;10.67;;;9.40;99.90;;;;;;5055484;28;20425;-74
2020/12/20 07:43:37;;;;;;;10.27;9.27;;;9.40;99.90;;;;;;5071514;28;20441;-74
2020/12/20 07:46:06;;;;;;;10.63;9.67;;;9.30;99.90;;;;;;5069314;28;20899;-74
2020/12/20 07:48:32;;;;;;;10.73;9.73;;;9.40;99.90;;;;;;5072463;28;20447;-74
2020/12/20 07:51:13;;;;;;;11.17;9.83;;;9.30;99.90;;;;;;5053735;28;20469;-74
2020/12/20 07:53:49;;;;;;;10.10;9.13;;;9.30;99.90;;;;;;5077417;28;20211;-74
2020/12/20 07:56:28;;;;;;;11.03;9.93;;;9.30;99.90;;;;;;5072286;28;20448;-74
2020/12/20 07:58:57;;;;;;;10.77;9.70;;;9.30;99.90;;;;;;5052944;28;21033;-74
2020/12/20 08:01:23;;;;;;;10.80;9.70;;;9.30;99.90;;;;;;5050433;28;20499;-74
2020/12/20 08:03:59;;;;;;;9.90;9.00;;;9.30;99.90;;;;;;5068918;28;20461;-74
2020/12/20 08:06:25;;;;;;;10.53;9.63;;;9.30;99.90;;;;;;5075991;28;20429;-74
2020/12/20 08:08:50;;;;;;;10.07;9.17;;;9.30;99.90;;;;;;5069756;28;20444;-74
2020/12/20 08:11:19;;;;;;;11.00;9.90;;;9.30;99.90;;;;;;5069657;28;20191;-74
2020/12/20 08:13:52;;;;;;;9.90;9.00;;;9.20;99.90;;;;;;5051208;28;20281;-74
2020/12/20 08:16:22;;;;;;;9.80;8.90;;;9.30;99.90;;;;;;5068606;28;20501;-74
2020/12/20 08:19:06;;;;;;;10.93;9.90;;;9.20;99.90;;;;;;5077333;28;20452;-74
2020/12/20 08:21:42;;;;;;;10.47;9.37;;;9.20;99.90;;;;;;5069666;28;20474;-74
2020/12/20 08:24:10;;;;;;;12.20;8.97;;;9.30;99.90;;;;;;5058141;28;20444;-74
2020/12/20 08:26:35;;;;;;;11.30;9.20;;;9.20;99.90;;;;;;5054569;28;20633;-74
2020/12/20 08:29:02;;;;;;;9.23;8.37;;;9.20;99.90;;;;;;5074265;28;20495;-74
2020/12/20 08:31:32;;;;;;;9.50;8.60;;;9.20;99.90;;;;;;5055632;28;20197;-74
2020/12/20 08:33:58;;;;;;;11.50;9.77;;;9.30;99.90;;;;;;5072142;28;20481;-74
2020/12/20 08:36:25;;;;;;;9.60;8.37;;;9.30;99.90;;;;;;5051748;28;20453;-74
2020/12/20 08:38:51;;;;;;;10.43;9.10;;;9.30;99.90;;;;;;5075244;28;20441;-74
2020/12/20 08:41:24;;;;;;;10.20;9.17;;;9.30;99.90;;;;;;5073677;28;20510;-74
2020/12/20 08:44:08;;;;;;;9.33;8.37;;;9.40;99.90;;;;;;5055601;28;20433;-74
2020/12/20 08:46:37;;;;;;;10.30;9.40;;;9.40;99.90;;;;;;5069611;28;20470;-74
2020/12/20 08:49:22;;;;;;;10.33;9.43;;;9.50;99.90;;;;;;5075054;28;20910;-74
2020/12/20 08:51:51;;;;;;;9.73;8.83;;;9.60;99.90;;;;;;5071853;28;20456;-74
2020/12/20 08:54:29;;;;;;;9.93;8.77;;;9.60;99.90;;;;;;5076373;28;20461;-74
2020/12/20 08:57:14;;;;;;;9.90;8.90;;;9.70;99.90;;;;;;5069756;28;20540;-74
2020/12/20 08:59:45;;;;;;;9.77;8.87;;;9.70;99.90;;;;;;5070264;28;20439;-74
2020/12/20 09:02:22;;;;;;;10.87;8.47;;;9.80;99.90;;;;;;5071738;28;20976;-74
2020/12/20 09:05:03;;;;;;;11.43;8.73;;;9.80;99.90;;;;;;5070643;28;20463;-74
2020/12/20 09:07:33;;;;;;;9.93;8.93;;;9.80;99.90;;;;;;5070307;28;20445;-74
2020/12/20 09:10:13;;;;;;;10.43;8.93;;;9.80;99.90;;;;;;5073070;28;20700;-74
2020/12/20 09:13:06;;;;;;;11.83;8.23;;;9.90;99.90;;;;;;5055274;28;20433;-74
2020/12/20 09:15:34;;;;;;;9.20;7.90;;;9.80;99.90;;;;;;5046135;28;20475;-74
2020/12/20 09:18:12;;;;;;;8.83;8.13;;;9.90;99.90;;;;;;5069778;28;20453;-74
2020/12/20 09:20:40;;;;;;;10.07;8.00;;;9.90;99.90;;;;;;5076571;28;20444;-74
2020/12/20 09:23:23;;;;;;;8.23;7.30;;;9.90;99.90;;;;;;5057445;28;20460;-74
2020/12/20 09:25:57;;;;;;;7.53;6.53;;;9.90;99.90;;;;;;5071306;28;20832;-74
2020/12/20 09:28:28;;;;;;;10.30;7.50;;;10.00;99.90;;;;;;5055786;28;20432;-74
2020/12/20 09:30:55;;;;;;;8.90;8.00;;;10.00;99.90;;;;;;5072889;28;20488;-74
2020/12/20 09:33:32;;;;;;;9.20;8.30;;;10.00;99.90;;;;;;5072876;28;20437;-74
2020/12/20 09:36:21;;;;;;;8.00;7.20;;;10.00;99.90;;;;;;5073290;28;20454;-74
2020/12/20 09:38:56;;;;;;;9.13;8.23;;;10.10;99.90;;;;;;5074335;28;20926;-74
2020/12/20 09:41:24;;;;;;;9.00;6.90;;;10.10;99.90;;;;;;5055317;28;20433;-74
2020/12/20 09:43:51;;;;;;;13.23;8.47;;;10.10;99.90;;;;;;5058148;28;20797;-74
2020/12/20 09:46:21;;;;;;;10.70;7.73;;;10.20;99.90;;;;;;5073461;28;20460;-74
2020/12/20 09:48:48;;;;;;;7.97;7.23;;;10.20;99.90;;;;;;5083804;28;20433;-75
2020/12/20 09:51:14;;;;;;;9.53;7.10;;;10.30;99.90;;;;;;5075699;28;20999;-75
2020/12/20 09:53:39;;;;;;;7.57;6.77;;;10.20;99.90;;;;;;5077297;28;20524;-74
2020/12/20 09:56:05;;;;;;;8.63;7.70;;;10.20;99.90;;;;;;5074482;28;20208;-74
2020/12/20 09:58:32;;;;;;;8.37;6.27;;;10.30;99.90;;;;;;5055263;28;20265;-75
2020/12/20 10:00:57;;;;;;;11.13;8.20;;;10.30;99.90;;;;;;5072869;28;20654;-74
2020/12/20 10:03:24;;;;;;;8.90;7.53;;;10.30;99.90;;;;;;5070637;28;20461;-74
2020/12/20 10:05:50;;;;;;;12.33;9.40;;;10.30;99.90;;;;;;5077409;28;20179;-75
2020/12/20 10:08:16;;;;;;;9.50;7.90;;;10.30;99.90;;;;;;5071378;28;20444;-74
2020/12/20 10:10:42;;;;;;;8.80;8.00;;;10.20;99.90;;;;;;5076069;28;20190;-74
2020/12/20 10:13:08;;;;;;;7.20;6.50;;;10.20;99.90;;;;;;5053968;28;20180;-74
2020/12/20 10:15:34;;;;;;;12.90;7.10;;;10.30;99.90;;;;;;5073752;28;20662;-74
2020/12/20 10:18:03;;;;;;;8.10;7.10;;;10.30;99.90;;;;;;5074419;28;20187;-74
2020/12/20 10:20:31;;;;;;;6.63;6.03;;;10.20;99.90;;;;;;5077642;28;20544;-74
2020/12/20 10:22:57;;;;;;;9.63;6.70;;;10.20;99.90;;;;;;5071607;28;20792;-74
2020/12/20 10:25:23;;;;;;;12.03;7.20;;;10.20;99.90;;;;;;5073572;28;20436;-74
2020/12/20 10:27:49;;;;;;;7.83;6.60;;;10.20;99.90;;;;;;5059330;28;20516;-74
2020/12/20 10:30:15;;;;;;;8.50;7.20;;;10.30;99.90;;;;;;5055027;28;20195;-74
2020/12/20 10:32:41;;;;;;;7.93;7.00;;;10.30;99.90;;;;;;5073899;28;20448;-74
2020/12/20 10:35:06;;;;;;;7.53;6.73;;;10.40;99.90;;;;;;5071618;28;20207;-74
2020/12/20 10:37:32;;;;;;;9.63;6.80;;;10.50;99.90;;;;;;5078127;28;20432;-74
2020/12/20 10:39:57;;;;;;;10.87;6.60;;;10.50;99.90;;;;;;5070237;28;20192;-74
2020/12/20 10:42:23;;;;;;;9.50;8.00;;;10.60;99.90;;;;;;5072842;28;20951;-74
2020/12/20 10:44:48;;;;;;;10.10;6.83;;;10.70;99.90;;;;;;5072027;28;20589;-74
2020/12/20 10:47:14;;;;;;;11.50;7.80;;;10.70;99.90;;;;;;5072315;28;20187;-74
2020/12/20 10:49:39;;;;;;;11.57;6.37;;;10.80;99.90;;;;;;5061106;28;20187;-74
2020/12/20 10:52:05;;;;;;;8.30;6.10;;;10.80;99.90;;;;;;5071070;28;20183;-74
2020/12/20 10:54:31;;;;;;;6.63;5.93;;;10.90;99.90;;;;;;5055128;28;20213;-74
2020/12/20 10:56:58;;;;;;;7.77;5.90;;;10.90;99.90;;;;;;5053022;28;20175;-74
2020/12/20 10:59:28;;;;;;;9.33;6.30;;;10.90;99.90;;;;;;5054695;28;20548;-74
2020/12/20 11:01:54;;;;;;;7.50;6.30;;;10.90;99.90;;;;;;5071587;28;20444;-75
2020/12/20 11:04:21;;;;;;;8.43;5.90;;;10.90;99.90;;;;;;5054723;28;20426;-74
2020/12/20 11:06:46;;;;;;;8.00;5.73;;;10.90;99.90;;;;;;5054273;28;20438;-74
2020/12/20 11:09:12;;;;;;;6.37;5.73;;;10.90;99.90;;;;;;5058798;28;20436;-74
2020/12/20 11:11:38;;;;;;;8.40;5.40;;;11.00;99.90;;;;;;5066232;28;20639;-74
2020/12/20 11:14:06;;;;;;;8.70;4.93;;;11.00;99.90;;;;;;5052275;28;20214;-75
2020/12/20 11:16:32;;;;;;;9.00;5.90;;;11.00;99.90;;;;;;5073297;28;20179;-75
2020/12/20 11:18:57;;;;;;;8.60;6.00;;;11.10;99.90;;;;;;5076336;28;20432;-74
2020/12/20 11:21:23;;;;;;;7.07;6.30;;;11.10;99.90;;;;;;5053132;28;20270;-74
2020/12/20 11:23:49;;;;;;;8.20;5.60;;;11.20;99.90;;;;;;5072244;28;20187;-74
2020/12/20 11:26:20;;;;;;;9.60;6.10;;;11.20;99.90;;;;;;5072656;28;20199;-74
2020/12/20 11:28:47;;;;;;;7.83;5.13;;;11.30;99.90;;;;;;5078423;28;20445;-75
2020/12/20 11:31:16;;;;;;;6.37;5.40;;;11.30;99.90;;;;;;5071657;28;21089;-75
2020/12/20 11:33:41;;;;;;;7.43;5.47;;;11.30;99.90;;;;;;5075319;28;20445;-75
2020/12/20 11:36:07;;;;;;;7.43;5.63;;;11.30;99.90;;;;;;5071375;28;20433;-75
2020/12/20 11:38:34;;;;;;;10.13;6.47;;;11.30;99.90;;;;;;5071885;28;20172;-75
2020/12/20 11:41:04;;;;;;;6.90;5.20;;;11.40;99.90;;;;;;5053124;28;20444;-74
2020/12/20 11:43:31;;;;;;;7.90;4.67;;;11.40;99.90;;;;;;5052910;28;20499;-74
2020/12/20 11:45:56;;;;;;;5.97;4.50;;;11.40;99.90;;;;;;5071690;28;20430;-75
2020/12/20 11:48:22;;;;;;;13.20;8.00;;;11.40;99.90;;;;;;5071455;28;20448;-74
2020/12/20 11:50:48;;;;;;;8.23;5.43;;;11.50;99.90;;;;;;5075144;28;20514;-75
2020/12/20 11:53:13;;;;;;;7.20;5.23;;;11.50;99.90;;;;;;5072746;28;20548;-75
2020/12/20 11:55:40;;;;;;;8.07;5.47;;;11.50;99.90;;;;;;5059719;28;20758;-75
2020/12/20 11:58:11;;;;;;;7.23;4.40;;;11.50;99.90;;;;;;5069736;28;20328;-74
2020/12/20 12:00:44;;;;;;;7.00;4.77;;;11.50;99.90;;;;;;5076766;28;20898;-75
2020/12/20 12:03:10;;;;;;;7.83;4.93;;;11.50;99.90;;;;;;5069355;28;20523;-74
2020/12/20 12:05:39;;;;;;;7.43;5.10;;;11.50;99.90;;;;;;5070282;28;20908;-74
2020/12/20 12:08:08;;;;;;;5.63;4.17;;;11.50;99.90;;;;;;5052546;28;21038;-74
2020/12/20 12:10:34;;;;;;;7.47;4.60;;;11.50;99.90;;;;;;5052259;28;20499;-75
2020/12/20 12:13:01;;;;;;;7.17;4.13;;;11.50;99.90;;;;;;5072693;28;20433;-74
2020/12/20 12:15:27;;;;;;;4.43;4.03;;;11.50;99.90;;;;;;5071306;28;20476;-75
2020/12/20 12:17:52;;;;;;;8.83;5.23;;;11.60;99.90;;;;;;5074747;28;20942;-75
2020/12/20 12:20:18;;;;;;;7.80;4.20;;;11.60;99.90;;;;;;5058373;28;20479;-75
2020/12/20 12:22:44;;;;;;;11.57;5.27;;;11.60;99.90;;;;;;5072998;28;20625;-74
2020/12/20 12:25:09;;;;;;;10.40;4.93;;;11.60;99.90;;;;;;5072023;28;20183;-74
2020/12/20 12:27:35;;;;;;;6.30;3.87;;;11.60;99.90;;;;;;5070382;28;20184;-75
2020/12/20 12:30:01;;;;;;;8.37;4.70;;;11.70;99.90;;;;;;5071459;28;20175;-75
2020/12/20 12:32:26;;;;;;;8.43;4.70;;;11.60;99.90;;;;;;5073634;28;20180;-75
2020/12/20 12:34:52;;;;;;;7.43;4.77;;;11.60;99.90;;;;;;5069813;28;20272;-75
2020/12/20 12:37:17;;;;;;;6.70;4.33;;;11.60;99.90;;;;;;5074782;28;20193;-74
2020/12/20 12:39:43;;;;;;;7.50;4.43;;;11.50;99.90;;;;;;5070041;28;20241;-74
2020/12/20 12:42:08;;;;;;;8.63;4.07;;;11.60;99.90;;;;;;5072040;28;20180;-74
2020/12/20 12:44:34;;;;;;;9.83;4.20;;;11.50;99.90;;;;;;5072189;28;20190;-74
2020/12/20 12:46:59;;;;;;;8.80;5.00;;;11.50;99.90;;;;;;5069709;28;20313;-74
2020/12/20 12:49:25;;;;;;;9.53;4.97;;;11.50;99.90;;;;;;5070994;28;20198;-74
2020/12/20 12:51:52;;;;;;;11.13;4.50;;;11.50;99.90;;;;;;5071491;28;20187;-74
2020/12/20 12:54:18;;;;;;;7.97;5.00;;;11.50;99.90;;;;;;5079630;28;20297;-74